Time;durP1;ratioP1;P1;durP2;ratioP2;P2;SDS_P1;SDS_P2;PMS_P1;PMS_P2;Temp;Humidity;BMP_temperature;BMP_pressure;BME280_temperature;BME280_humidity;BME280_pressure;Samples;Min_cycle;Max_cycle;Signal;HPM_P1;HPM_P2
2022/07/04 00:02:05;;;;;;;3.30;1.98;;;21.10;30.80;;;;;;5095517;28;20026;-47
2022/07/04 00:04:30;;;;;;;2.22;2.03;;;21.10;31.60;;;;;;5088263;28;20032;-50
2022/07/04 00:06:56;;;;;;;1.95;1.85;;;21.10;32.50;;;;;;5106483;28;20815;-54
2022/07/04 00:09:21;;;;;;;2.35;2.15;;;21.00;34.30;;;;;;5109706;28;20042;-53
2022/07/04 00:11:47;;;;;;;2.50;2.30;;;21.00;35.00;;;;;;5093642;28;20115;-51
2022/07/04 00:14:12;;;;;;;3.92;2.85;;;21.00;35.00;;;;;;5109518;28;20409;-48
2022/07/04 00:16:38;;;;;;;2.70;2.20;;;20.90;35.50;;;;;;5092543;28;20111;-49
2022/07/04 00:19:03;;;;;;;2.72;2.50;;;20.90;35.50;;;;;;5109781;28;20742;-48
2022/07/04 00:21:29;;;;;;;2.65;2.20;;;20.80;36.90;;;;;;5091142;28;20035;-46
2022/07/04 00:23:54;;;;;;;2.60;2.40;;;20.80;37.60;;;;;;5098997;28;20047;-46
2022/07/04 00:26:20;;;;;;;2.55;2.30;;;20.70;38.30;;;;;;5103313;28;20050;-49
2022/07/04 00:28:45;;;;;;;2.67;2.40;;;20.70;39.40;;;;;;5108874;28;20047;-47
2022/07/04 00:31:11;;;;;;;6.32;2.60;;;20.60;39.50;;;;;;5088457;28;20032;-46
2022/07/04 00:33:36;;;;;;;2.47;2.28;;;20.60;40.40;;;;;;5109606;28;20027;-51
2022/07/04 00:36:02;;;;;;;2.53;2.33;;;20.50;41.00;;;;;;5089529;28;20040;-49
2022/07/04 00:38:28;;;;;;;2.85;2.60;;;20.50;41.70;;;;;;5107190;28;20571;-48
2022/07/04 00:40:54;;;;;;;3.42;2.50;;;20.50;41.90;;;;;;5089320;28;20115;-47
2022/07/04 00:43:24;;;;;;;2.95;2.65;;;20.50;43.00;;;;;;5067753;28;20017;-46
2022/07/04 00:45:49;;;;;;;4.22;2.35;;;20.50;46.90;;;;;;5108177;28;20066;-46
2022/07/04 00:48:18;;;;;;;3.42;2.28;;;20.50;44.20;;;;;;5069320;28;20064;-49
2022/07/04 00:50:46;;;;;;;2.60;2.15;;;20.50;47.40;;;;;;5107292;28;20396;-50
2022/07/04 00:53:12;;;;;;;3.72;2.22;;;20.40;44.60;;;;;;5069796;28;20082;-48
2022/07/04 00:55:38;;;;;;;2.20;1.70;;;20.30;46.00;;;;;;5108034;28;20024;-53
2022/07/04 00:58:05;;;;;;;1.83;1.63;;;20.30;47.30;;;;;;5088842;28;20034;-50
2022/07/04 01:00:30;;;;;;;5.20;1.90;;;20.20;46.20;;;;;;5097485;28;20111;-46
2022/07/04 01:02:56;;;;;;;3.33;2.08;;;20.20;50.70;;;;;;5101183;28;20119;-49
2022/07/04 01:05:21;;;;;;;1.98;1.50;;;20.10;47.90;;;;;;5105153;28;20568;-45
2022/07/04 01:07:47;;;;;;;1.90;1.60;;;20.10;48.90;;;;;;5077763;28;20040;-52
2022/07/04 01:10:12;;;;;;;1.95;1.70;;;20.10;50.00;;;;;;5107613;28;20065;-48
2022/07/04 01:12:38;;;;;;;1.70;1.58;;;20.10;50.70;;;;;;5074389;28;20024;-46
2022/07/04 01:15:05;;;;;;;3.03;1.60;;;20.10;53.70;;;;;;5107786;28;20028;-49
2022/07/04 01:17:31;;;;;;;3.25;1.60;;;20.10;50.60;;;;;;5078552;28;20105;-55
2022/07/04 01:19:57;;;;;;;3.38;1.90;;;20.00;50.40;;;;;;5110601;28;20491;-48
2022/07/04 01:22:22;;;;;;;2.08;1.85;;;20.00;56.50;;;;;;5100086;28;20031;-48
2022/07/04 01:24:48;;;;;;;2.55;1.70;;;19.90;55.40;;;;;;5092666;28;20034;-50
2022/07/04 01:27:15;;;;;;;1.75;1.50;;;19.80;55.60;;;;;;5106662;28;20038;-49
2022/07/04 01:29:40;;;;;;;1.70;1.60;;;19.80;56.20;;;;;;5091171;28;20406;-46
2022/07/04 01:32:07;;;;;;;3.20;1.63;;;19.70;54.90;;;;;;5109944;28;20036;-51
2022/07/04 01:34:33;;;;;;;2.80;1.65;;;19.70;55.30;;;;;;5092621;28;20514;-52
2022/07/04 01:37:00;;;;;;;1.48;1.30;;;19.60;56.90;;;;;;5109881;28;20035;-47
2022/07/04 01:39:27;;;;;;;1.50;1.27;;;19.60;58.10;;;;;;5112583;27;20027;-48
2022/07/04 01:41:52;;;;;;;1.45;1.33;;;19.50;57.40;;;;;;5097087;28;20019;-51
2022/07/04 01:44:18;;;;;;;1.20;1.10;;;19.60;57.50;;;;;;5112517;28;20069;-50
2022/07/04 01:46:43;;;;;;;1.70;1.60;;;19.50;57.20;;;;;;5095888;28;20103;-54
2022/07/04 01:49:09;;;;;;;1.40;1.30;;;19.50;57.70;;;;;;5112594;28;20053;-50
2022/07/04 01:51:34;;;;;;;2.00;1.67;;;19.50;57.70;;;;;;5094537;28;20031;-51
2022/07/04 01:54:00;;;;;;;1.50;1.33;;;19.50;57.60;;;;;;5112512;28;20035;-49
2022/07/04 01:56:25;;;;;;;1.50;1.40;;;19.50;58.20;;;;;;5093134;28;20038;-51
2022/07/04 01:58:51;;;;;;;1.90;1.33;;;19.40;59.70;;;;;;5112434;28;20032;-50
2022/07/04 02:01:32;;;;;;;2.22;1.50;;;19.40;59.00;;;;;;5087894;28;20032;-49
2022/07/04 02:03:59;;;;;;;1.60;1.50;;;19.30;59.80;;;;;;5112225;28;20031;-49
2022/07/04 02:06:25;;;;;;;1.60;1.50;;;19.20;60.10;;;;;;5082008;28;20944;-49
2022/07/04 02:14:19;;;;;;;3.30;1.40;;;19.00;61.80;;;;;;5112472;28;20031;-48
2022/07/04 02:16:45;;;;;;;1.65;1.55;;;18.90;62.40;;;;;;5095285;28;20036;-46
2022/07/04 02:19:10;;;;;;;1.40;1.20;;;18.80;65.60;;;;;;5110614;28;20024;-46
2022/07/04 02:21:36;;;;;;;1.50;1.40;;;18.70;65.50;;;;;;5094254;28;20057;-48
2022/07/04 02:24:02;;;;;;;1.60;1.50;;;18.70;67.60;;;;;;5111839;28;20110;-52
2022/07/04 02:26:28;;;;;;;1.40;1.30;;;18.60;68.40;;;;;;5096107;28;20035;-52
2022/07/04 02:28:53;;;;;;;1.65;1.50;;;18.50;70.00;;;;;;5101318;28;20100;-51
2022/07/04 02:31:19;;;;;;;1.73;1.63;;;18.40;70.30;;;;;;5108672;28;20074;-48
2022/07/04 02:33:44;;;;;;;2.33;1.80;;;18.40;74.10;;;;;;5111639;28;20035;-49
2022/07/04 02:36:10;;;;;;;2.03;1.65;;;18.30;74.20;;;;;;5090230;28;20040;-45
2022/07/04 02:38:35;;;;;;;1.63;1.23;;;18.30;74.70;;;;;;5111657;28;20498;-48
2022/07/04 02:41:01;;;;;;;1.67;1.50;;;18.20;73.70;;;;;;5091106;28;20034;-48
2022/07/04 02:43:26;;;;;;;1.40;1.30;;;18.20;75.80;;;;;;5108626;28;20036;-51
2022/07/04 02:45:52;;;;;;;1.50;1.40;;;18.10;74.30;;;;;;5098931;28;20047;-46
2022/07/04 02:48:17;;;;;;;2.58;1.38;;;18.10;75.60;;;;;;5091367;28;20032;-50
2022/07/04 02:50:42;;;;;;;2.40;1.67;;;18.00;75.70;;;;;;5108407;28;20027;-49
2022/07/04 02:53:08;;;;;;;1.55;1.45;;;18.00;75.80;;;;;;5091317;28;20127;-50
2022/07/04 02:55:34;;;;;;;1.25;1.08;;;17.90;77.20;;;;;;5108349;28;20028;-52
2022/07/04 02:57:59;;;;;;;1.40;1.20;;;17.90;79.60;;;;;;5111088;28;20512;-48
2022/07/04 03:00:24;;;;;;;1.60;1.20;;;17.80;77.50;;;;;;5084545;28;20043;-47
2022/07/04 03:02:50;;;;;;;1.05;1.05;;;17.70;77.20;;;;;;5109466;28;20032;-49
2022/07/04 03:05:16;;;;;;;2.75;1.23;;;17.70;77.30;;;;;;5090784;28;20020;-51
2022/07/04 03:07:41;;;;;;;1.70;1.58;;;17.70;78.30;;;;;;5090465;28;20016;-51
2022/07/04 03:10:07;;;;;;;1.42;1.27;;;17.60;79.00;;;;;;5107968;28;20110;-50
2022/07/04 03:12:32;;;;;;;1.35;1.25;;;17.60;79.50;;;;;;5110894;28;20031;-51
2022/07/04 03:14:59;;;;;;;1.40;1.30;;;17.60;79.60;;;;;;5091242;28;20046;-50
2022/07/04 03:17:25;;;;;;;2.88;1.20;;;17.50;80.60;;;;;;5110656;28;20029;-49
2022/07/04 03:19:50;;;;;;;1.58;1.38;;;17.50;81.90;;;;;;5088704;28;20040;-51
2022/07/04 03:22:16;;;;;;;1.55;1.45;;;17.50;81.80;;;;;;5110849;28;20039;-50
2022/07/04 03:24:41;;;;;;;1.48;1.38;;;17.50;82.90;;;;;;5088764;28;20411;-50
2022/07/04 03:27:07;;;;;;;1.30;1.20;;;17.50;83.90;;;;;;5093976;28;20036;-50
2022/07/04 03:29:32;;;;;;;1.30;1.20;;;17.50;83.90;;;;;;5090448;28;20047;-52
2022/07/04 03:31:58;;;;;;;1.92;1.55;;;17.50;82.80;;;;;;5069326;28;20040;-47
2022/07/04 03:34:23;;;;;;;1.55;1.40;;;17.50;85.90;;;;;;5109065;28;20059;-53
2022/07/04 03:36:49;;;;;;;1.90;1.40;;;17.50;86.90;;;;;;5088697;28;20039;-45
2022/07/04 03:39:14;;;;;;;2.70;1.00;;;17.60;86.90;;;;;;5109469;28;20110;-47
2022/07/04 03:41:40;;;;;;;1.67;1.50;;;17.80;89.10;;;;;;5071598;28;20103;-46
2022/07/04 03:44:05;;;;;;;1.80;1.60;;;17.90;88.50;;;;;;5108558;28;20048;-46
2022/07/04 03:46:31;;;;;;;2.03;1.45;;;18.50;86.00;;;;;;5072912;28;20032;-48
2022/07/04 03:48:56;;;;;;;1.33;1.23;;;19.10;80.60;;;;;;5108510;28;20080;-50
2022/07/04 03:51:22;;;;;;;1.27;1.17;;;19.80;76.60;;;;;;5074091;28;20067;-49
2022/07/04 03:53:48;;;;;;;2.30;1.25;;;20.50;72.60;;;;;;5108432;28;20030;-53
2022/07/04 03:56:14;;;;;;;1.60;1.45;;;21.10;68.60;;;;;;5074865;28;20037;-48
2022/07/04 03:58:42;;;;;;;1.58;1.40;;;21.80;64.80;;;;;;5108425;28;20035;-50
2022/07/04 04:01:08;;;;;;;1.52;1.42;;;22.40;61.40;;;;;;5071925;28;20012;-50
2022/07/04 04:06:18;;;;;;;1.17;1.05;;;23.40;56.00;;;;;;5079003;28;20419;-52
2022/07/04 04:08:44;;;;;;;2.05;1.38;;;24.00;53.40;;;;;;5070837;28;20044;-51
2022/07/04 04:11:09;;;;;;;1.70;1.60;;;24.30;51.20;;;;;;5108241;28;20028;-47
2022/07/04 04:13:35;;;;;;;2.58;1.35;;;24.80;48.40;;;;;;5086426;28;20032;-47
2022/07/04 04:16:01;;;;;;;1.40;1.30;;;25.10;46.70;;;;;;5089530;28;20437;-48
2022/07/04 04:18:26;;;;;;;4.15;1.50;;;25.50;44.40;;;;;;5078962;28;20021;-57
2022/07/04 04:20:52;;;;;;;1.92;1.55;;;26.00;43.00;;;;;;5108406;28;20034;-45
2022/07/04 04:23:17;;;;;;;2.40;1.50;;;26.30;40.50;;;;;;5075097;28;20043;-50
2022/07/04 04:25:43;;;;;;;3.90;1.30;;;26.70;38.40;;;;;;5107755;28;20024;-51
2022/07/04 04:28:08;;;;;;;2.40;1.50;;;27.00;36.60;;;;;;5089587;28;20491;-43
2022/07/04 04:30:34;;;;;;;2.80;1.25;;;27.30;35.20;;;;;;5109575;28;20024;-45
2022/07/04 04:33:00;;;;;;;1.98;1.30;;;27.60;32.80;;;;;;5096504;28;20452;-44
2022/07/04 04:35:25;;;;;;;1.90;1.20;;;27.80;32.20;;;;;;5089501;28;20040;-44
2022/07/04 04:37:51;;;;;;;1.58;1.48;;;28.10;30.90;;;;;;5106509;28;20078;-43
2022/07/04 04:40:17;;;;;;;1.98;1.52;;;28.40;29.00;;;;;;5089395;28;20430;-50
2022/07/04 04:42:42;;;;;;;1.80;1.60;;;28.40;27.90;;;;;;5106224;28;20072;-50
2022/07/04 04:45:08;;;;;;;2.08;1.80;;;28.60;27.50;;;;;;5089428;28;20085;-45
2022/07/04 04:47:34;;;;;;;2.15;1.98;;;28.70;24.70;;;;;;5106109;28;20023;-50
2022/07/04 04:50:00;;;;;;;3.72;1.50;;;28.60;25.80;;;;;;5110190;28;20589;-46
2022/07/04 04:52:26;;;;;;;2.00;1.80;;;28.90;25.30;;;;;;5099490;27;20042;-46
2022/07/04 04:54:51;;;;;;;2.55;1.58;;;29.10;24.30;;;;;;5116161;27;20024;-45
2022/07/04 04:57:17;;;;;;;2.60;1.90;;;29.30;23.40;;;;;;5098681;28;20047;-45
2022/07/04 04:59:43;;;;;;;2.55;1.67;;;29.80;22.70;;;;;;5107719;28;20028;-47
2022/07/04 05:02:09;;;;;;;1.60;1.50;;;30.10;21.70;;;;;;5096793;28;20024;-49
2022/07/04 05:04:34;;;;;;;2.13;1.73;;;30.20;21.20;;;;;;5115809;27;20032;-45
2022/07/04 05:07:00;;;;;;;1.70;1.60;;;30.40;19.90;;;;;;5096019;28;20032;-46
2022/07/04 05:09:26;;;;;;;2.10;1.83;;;30.70;19.40;;;;;;5115994;28;20027;-45
2022/07/04 05:11:52;;;;;;;2.45;2.13;;;31.00;17.80;;;;;;5094272;27;20028;-46
2022/07/04 05:14:17;;;;;;;2.03;1.73;;;31.30;16.20;;;;;;5115710;28;20027;-49
2022/07/04 05:16:43;;;;;;;2.13;1.92;;;31.70;16.20;;;;;;5095993;28;20028;-52
2022/07/04 05:19:09;;;;;;;1.88;1.67;;;32.00;15.00;;;;;;5113283;28;20024;-46
2022/07/04 05:21:34;;;;;;;3.60;1.55;;;31.30;15.30;;;;;;5092489;28;20510;-45
2022/07/04 05:24:00;;;;;;;3.13;2.03;;;30.30;16.40;;;;;;5094614;28;20027;-48
2022/07/04 05:26:26;;;;;;;2.30;2.10;;;29.40;17.40;;;;;;5094527;28;20032;-52
2022/07/04 05:28:52;;;;;;;2.47;1.92;;;29.00;18.00;;;;;;5103610;28;20071;-52
2022/07/04 05:31:17;;;;;;;2.50;2.17;;;29.10;17.80;;;;;;5115143;28;20067;-50
2022/07/04 05:33:43;;;;;;;2.50;2.17;;;28.70;18.10;;;;;;5075478;28;20496;-50
2022/07/04 05:36:09;;;;;;;2.10;1.90;;;29.30;17.20;;;;;;5094238;28;20085;-49
2022/07/04 05:38:35;;;;;;;2.00;1.83;;;30.40;15.90;;;;;;5075808;28;20049;-51
2022/07/04 05:41:01;;;;;;;2.15;1.70;;;31.30;14.10;;;;;;5114092;28;20038;-46
2022/07/04 05:43:27;;;;;;;2.03;1.60;;;32.20;12.80;;;;;;5077386;27;20052;-44
2022/07/04 05:45:53;;;;;;;2.75;1.70;;;32.80;11.50;;;;;;5114100;28;20067;-45
2022/07/04 05:48:19;;;;;;;2.10;1.92;;;33.60;10.30;;;;;;5078611;28;20020;-50
2022/07/04 05:50:44;;;;;;;1.75;1.52;;;34.40;9.10;;;;;;5114230;27;20031;-52
2022/07/04 05:53:10;;;;;;;3.53;1.70;;;34.70;7.10;;;;;;5079798;28;20484;-49
2022/07/04 05:55:35;;;;;;;2.63;1.60;;;34.60;7.40;;;;;;5114055;28;20483;-50
2022/07/04 05:58:01;;;;;;;1.65;1.50;;;34.80;6.70;;;;;;5080932;28;20048;-49
2022/07/04 06:00:27;;;;;;;3.70;1.67;;;35.10;6.60;;;;;;5099081;28;20052;-53
2022/07/04 06:02:52;;;;;;;1.63;1.52;;;35.50;5.20;;;;;;5086001;28;20559;-51
2022/07/04 06:05:18;;;;;;;1.95;1.77;;;35.80;4.40;;;;;;5107174;28;20028;-46
2022/07/04 06:07:43;;;;;;;3.20;1.55;;;35.70;3.30;;;;;;5108041;28;20255;-51
2022/07/04 06:10:09;;;;;;;2.65;1.02;;;35.70;3.00;;;;;;5091472;28;20587;-49
2022/07/04 06:12:35;;;;;;;1.65;1.35;;;35.70;2.80;;;;;;5108297;28;20043;-50
2022/07/04 06:15:01;;;;;;;2.88;1.30;;;35.20;3.40;;;;;;5091787;28;20031;-47
2022/07/04 06:17:27;;;;;;;1.67;1.30;;;35.90;2.70;;;;;;5108816;28;20035;-49
2022/07/04 06:19:53;;;;;;;1.77;1.23;;;36.60;1.80;;;;;;5091865;28;20494;-50
2022/07/04 06:22:18;;;;;;;2.15;1.40;;;37.20;1.00;;;;;;5108738;28;20031;-49
2022/07/04 06:24:44;;;;;;;2.33;1.27;;;37.50;1.00;;;;;;5111383;28;20177;-47
2022/07/04 06:27:10;;;;;;;1.25;1.15;;;37.10;1.00;;;;;;5101801;28;20040;-45
2022/07/04 06:29:35;;;;;;;1.45;1.27;;;36.70;1.00;;;;;;5111201;28;20570;-44
2022/07/04 06:32:01;;;;;;;1.38;1.20;;;36.60;1.00;;;;;;5093851;28;20092;-43
2022/07/04 06:37:10;;;;;;;1.10;1.00;;;36.70;1.00;;;;;;5079721;28;20057;-45
2022/07/04 06:39:36;;;;;;;2.40;1.10;;;36.70;1.00;;;;;;5111121;28;20032;-45
2022/07/04 06:42:01;;;;;;;2.15;1.35;;;36.00;1.00;;;;;;5093960;28;20129;-43
2022/07/04 06:44:27;;;;;;;1.73;1.20;;;35.40;1.00;;;;;;5111172;28;20024;-46
2022/07/04 06:46:53;;;;;;;3.00;1.60;;;34.10;1.70;;;;;;5092220;28;20407;-49
2022/07/04 06:49:19;;;;;;;1.90;1.30;;;32.80;3.40;;;;;;5111011;28;20057;-44
2022/07/04 06:51:44;;;;;;;2.47;1.40;;;33.10;3.70;;;;;;5090987;28;20028;-50
2022/07/04 06:54:10;;;;;;;2.05;1.30;;;33.40;3.10;;;;;;5111095;28;20475;-45
2022/07/04 06:56:35;;;;;;;3.25;1.58;;;33.90;2.50;;;;;;5089645;28;20032;-45
2022/07/04 06:59:03;;;;;;;2.35;1.17;;;34.90;1.20;;;;;;5110920;28;20019;-46
2022/07/04 07:01:28;;;;;;;3.95;0.95;;;36.00;1.00;;;;;;5083015;28;20058;-49
2022/07/04 07:03:54;;;;;;;1.67;1.00;;;37.00;1.00;;;;;;5108436;28;20047;-44
2022/07/04 07:06:19;;;;;;;3.00;1.05;;;36.50;1.00;;;;;;5090678;28;20036;-46
2022/07/04 07:08:45;;;;;;;2.03;1.00;;;35.50;1.00;;;;;;5069457;28;20087;-46
2022/07/04 07:11:13;;;;;;;1.17;0.90;;;35.00;1.00;;;;;;5109211;28;20387;-49
2022/07/04 07:13:43;;;;;;;1.27;0.80;;;34.80;1.00;;;;;;5070357;28;20083;-49
2022/07/04 07:16:09;;;;;;;1.48;0.80;;;34.70;1.00;;;;;;5070010;28;20028;-45
2022/07/04 07:18:36;;;;;;;1.42;0.82;;;35.20;1.00;;;;;;5072487;28;20496;-51
2022/07/04 07:21:02;;;;;;;0.85;0.80;;;36.00;1.00;;;;;;5109403;28;20539;-50
2022/07/04 07:23:27;;;;;;;1.30;1.00;;;35.70;1.00;;;;;;5072081;28;20392;-48
2022/07/04 07:25:53;;;;;;;0.70;0.70;;;36.40;1.00;;;;;;5107144;28;20035;-50
2022/07/04 07:28:18;;;;;;;2.13;0.70;;;37.10;1.00;;;;;;5085904;28;20126;-49
2022/07/04 07:30:44;;;;;;;2.38;0.93;;;38.00;1.00;;;;;;5110213;28;20038;-47
2022/07/04 07:33:10;;;;;;;1.65;0.80;;;37.80;1.00;;;;;;5074534;28;20029;-48
2022/07/04 07:35:36;;;;;;;1.85;1.00;;;37.50;1.00;;;;;;5108979;28;20038;-52
2022/07/04 07:38:01;;;;;;;2.13;0.80;;;38.00;1.00;;;;;;5075478;28;20040;-49
2022/07/04 07:40:27;;;;;;;3.17;0.90;;;38.70;1.00;;;;;;5108584;28;20035;-52
2022/07/04 07:42:54;;;;;;;0.80;0.80;;;38.90;1.00;;;;;;5076706;28;20060;-47
2022/07/04 07:45:20;;;;;;;1.45;0.70;;;38.50;1.00;;;;;;5108957;28;20047;-51
2022/07/04 07:47:46;;;;;;;3.42;0.77;;;38.80;1.00;;;;;;5098680;28;20235;-49
2022/07/04 07:50:12;;;;;;;1.80;0.85;;;39.50;1.00;;;;;;5089949;28;20121;-51
2022/07/04 07:52:37;;;;;;;1.20;0.70;;;40.20;1.00;;;;;;5107237;28;20050;-46
2022/07/04 07:55:03;;;;;;;1.13;0.60;;;40.70;1.00;;;;;;5089882;28;20484;-49
2022/07/04 07:57:29;;;;;;;0.77;0.57;;;40.20;1.00;;;;;;5107043;28;20040;-47
2022/07/04 07:59:55;;;;;;;0.88;0.40;;;40.20;1.00;;;;;;5088373;28;20436;-46
2022/07/04 08:04:34;;;;;;;2.35;0.80;;;39.80;1.00;;;;;;5107641;28;20076;-49
2022/07/04 08:05:07;;;;;;;1.80;0.60;;;39.80;1.00;;;;;;5105400;28;20070;-51
2022/07/04 08:07:33;;;;;;;1.00;0.47;;;40.00;1.00;;;;;;5096080;28;20030;-44
2022/07/04 08:09:59;;;;;;;1.30;0.50;;;39.70;1.00;;;;;;5089540;28;20044;-45
2022/07/04 08:12:24;;;;;;;1.45;0.60;;;39.80;1.00;;;;;;5106686;28;20126;-46
2022/07/04 08:14:50;;;;;;;0.50;0.50;;;40.30;1.00;;;;;;5109517;28;20062;-44
2022/07/04 08:17:15;;;;;;;1.25;0.60;;;40.60;1.00;;;;;;5093982;28;20388;-46
2022/07/04 08:19:41;;;;;;;0.65;0.40;;;40.60;1.00;;;;;;5109213;28;20023;-47
2022/07/04 08:22:06;;;;;;;1.10;0.40;;;40.10;1.00;;;;;;5092719;28;20031;-48
2022/07/04 08:24:32;;;;;;;1.38;0.35;;;39.30;1.00;;;;;;5108873;28;20531;-45
2022/07/04 08:26:57;;;;;;;0.50;0.40;;;38.10;1.00;;;;;;5097403;28;20020;-45
2022/07/04 08:29:23;;;;;;;0.50;0.30;;;37.50;1.00;;;;;;5095882;28;20523;-49
2022/07/04 08:31:48;;;;;;;0.40;0.40;;;37.00;1.00;;;;;;5106328;28;22942;-50
2022/07/04 08:34:14;;;;;;;0.45;0.32;;;36.50;1.00;;;;;;5109165;28;20035;-45
2022/07/04 08:36:40;;;;;;;0.32;0.30;;;35.80;1.00;;;;;;5088647;28;20032;-47
2022/07/04 08:39:05;;;;;;;0.63;0.30;;;34.90;1.00;;;;;;5108815;28;20024;-46
2022/07/04 08:41:37;;;;;;;0.65;0.30;;;34.00;1.00;;;;;;5087369;28;20036;-48
2022/07/04 08:44:05;;;;;;;0.90;0.50;;;33.50;1.00;;;;;;5109038;28;20385;-45
2022/07/04 08:46:31;;;;;;;1.13;0.40;;;33.20;1.00;;;;;;5086921;28;20036;-51
2022/07/04 08:49:03;;;;;;;0.82;0.50;;;32.60;1.00;;;;;;5108863;28;20034;-46
2022/07/04 08:51:54;;;;;;;0.80;0.40;;;32.10;1.00;;;;;;5068378;28;20335;-44
2022/07/04 08:59:55;;;;;;;0.80;0.50;;;31.20;1.00;;;;;;5095860;28;20536;-44
2022/07/04 09:02:21;;;;;;;1.48;0.38;;;31.40;1.00;;;;;;5093623;28;20133;-44
2022/07/04 09:04:49;;;;;;;0.95;0.40;;;31.50;1.00;;;;;;5108506;28;20036;-51
2022/07/04 09:07:15;;;;;;;1.02;0.45;;;31.80;1.00;;;;;;5093226;28;20032;-44
2022/07/04 09:09:41;;;;;;;0.90;0.30;;;32.00;1.00;;;;;;5108540;28;20023;-50
2022/07/04 09:12:08;;;;;;;1.35;0.40;;;32.30;1.00;;;;;;5092176;28;20016;-52
2022/07/04 09:14:34;;;;;;;2.33;0.55;;;32.50;1.00;;;;;;5108728;28;20020;-44
2022/07/04 09:17:00;;;;;;;5.95;0.63;;;32.70;1.00;;;;;;5091100;28;20026;-46
2022/07/04 09:19:25;;;;;;;0.47;0.47;;;32.80;1.00;;;;;;5108737;28;20072;-45
2022/07/04 09:21:51;;;;;;;0.68;0.40;;;32.70;1.00;;;;;;5089609;28;20498;-49
2022/07/04 09:24:40;;;;;;;1.80;0.50;;;32.70;1.00;;;;;;5108574;28;20375;-48
2022/07/04 09:27:05;;;;;;;1.23;0.40;;;32.80;1.00;;;;;;5089524;28;20122;-44
2022/07/04 09:29:31;;;;;;;3.08;0.47;;;33.00;1.00;;;;;;5108395;28;20582;-48
2022/07/04 09:31:57;;;;;;;1.77;0.40;;;33.00;1.00;;;;;;5090312;28;20034;-47
2022/07/04 09:34:23;;;;;;;0.65;0.50;;;33.20;1.00;;;;;;5108728;28;20094;-48
2022/07/04 09:36:55;;;;;;;0.40;0.30;;;33.20;1.00;;;;;;5090626;28;20107;-48
2022/07/04 09:39:21;;;;;;;3.25;0.85;;;33.30;1.00;;;;;;5112291;28;20080;-49
2022/07/04 09:42:03;;;;;;;1.90;0.70;;;32.90;1.00;;;;;;5092899;28;20032;-47
2022/07/04 09:44:44;;;;;;;2.55;0.55;;;32.50;1.00;;;;;;5112089;27;20074;-47
2022/07/04 09:47:22;;;;;;;0.57;0.40;;;32.00;1.00;;;;;;5080662;28;20129;-49
2022/07/04 09:50:06;;;;;;;0.93;0.30;;;31.80;1.00;;;;;;5112398;28;20051;-51
2022/07/04 09:52:32;;;;;;;0.60;0.40;;;31.80;1.00;;;;;;5098482;28;20042;-49
2022/07/04 09:55:05;;;;;;;1.67;0.73;;;31.90;1.00;;;;;;5091741;28;20515;-44
2022/07/04 09:57:31;;;;;;;0.65;0.30;;;31.80;1.00;;;;;;5086455;28;20015;-48
2022/07/04 10:00:16;;;;;;;0.80;0.40;;;32.00;1.00;;;;;;5085341;28;20027;-47
2022/07/04 10:02:41;;;;;;;0.38;0.30;;;32.20;1.00;;;;;;5110005;28;20067;-51
2022/07/04 10:05:07;;;;;;;0.82;0.50;;;32.20;1.00;;;;;;5092132;28;20040;-44
2022/07/04 10:07:43;;;;;;;0.63;0.30;;;31.90;1.00;;;;;;5072273;28;20178;-44
2022/07/04 10:10:37;;;;;;;0.70;0.43;;;31.80;1.00;;;;;;5071151;28;20036;-47
2022/07/04 10:13:11;;;;;;;0.50;0.50;;;31.70;1.00;;;;;;5071077;28;20492;-49
2022/07/04 10:15:39;;;;;;;1.48;0.70;;;31.40;1.00;;;;;;5071460;28;20051;-49
2022/07/04 10:18:06;;;;;;;0.82;0.50;;;31.20;1.00;;;;;;5111758;28;20557;-44
2022/07/04 10:20:32;;;;;;;1.65;0.40;;;30.90;1.00;;;;;;5089922;28;20122;-51
2022/07/04 10:22:59;;;;;;;1.88;0.70;;;30.80;1.00;;;;;;5080779;28;20153;-62
2022/07/04 10:25:24;;;;;;;0.95;0.50;;;30.70;1.00;;;;;;5077727;28;20036;-53
2022/07/04 10:27:51;;;;;;;0.77;0.50;;;30.50;1.00;;;;;;5081029;28;20020;-54
2022/07/04 10:30:25;;;;;;;1.55;0.73;;;30.40;1.00;;;;;;5082028;28;20466;-54
2022/07/04 10:32:53;;;;;;;1.20;0.60;;;30.30;1.00;;;;;;5069974;28;20119;-54
2022/07/04 10:35:47;;;;;;;1.02;0.55;;;30.20;1.00;;;;;;5078037;28;20036;-56
2022/07/04 10:38:14;;;;;;;2.70;0.70;;;30.00;1.00;;;;;;5066633;28;20035;-56
2022/07/04 10:40:51;;;;;;;2.85;0.52;;;29.70;1.00;;;;;;5075148;28;20078;-55
2022/07/04 10:43:33;;;;;;;2.03;0.73;;;29.40;1.00;;;;;;5068917;28;20029;-56
2022/07/04 10:46:05;;;;;;;0.80;0.60;;;29.20;1.00;;;;;;5082631;28;20028;-56
2022/07/04 10:48:31;;;;;;;1.65;0.52;;;29.20;1.00;;;;;;5079178;28;20040;-55
2022/07/04 10:51:05;;;;;;;1.45;0.77;;;29.10;1.00;;;;;;5074333;28;20036;-54
2022/07/04 10:53:32;;;;;;;1.48;0.50;;;29.10;1.00;;;;;;5071927;28;20064;-55
2022/07/04 10:56:18;;;;;;;1.85;0.60;;;28.90;1.00;;;;;;5075633;28;20384;-53
2022/07/04 10:58:44;;;;;;;1.10;0.60;;;28.90;1.00;;;;;;5090758;28;20507;-55
2022/07/04 11:01:10;;;;;;;1.38;0.70;;;28.80;1.00;;;;;;5062870;28;20047;-55
2022/07/04 11:03:48;;;;;;;2.17;0.40;;;28.60;1.00;;;;;;5087814;28;20509;-55
2022/07/04 11:06:32;;;;;;;3.28;0.70;;;28.40;1.00;;;;;;5076826;28;20055;-56
2022/07/04 11:09:20;;;;;;;0.40;0.40;;;28.20;1.00;;;;;;5091088;28;20701;-56
2022/07/04 11:12:03;;;;;;;3.88;0.85;;;28.10;1.00;;;;;;5073650;28;20109;-55
2022/07/04 11:14:36;;;;;;;1.15;0.63;;;28.20;1.00;;;;;;5088291;28;20055;-56
2022/07/04 11:17:33;;;;;;;2.28;0.73;;;28.20;1.00;;;;;;5067391;28;20021;-56
2022/07/04 11:20:07;;;;;;;1.98;0.65;;;28.20;1.00;;;;;;5075131;28;20036;-56
2022/07/04 11:22:33;;;;;;;2.20;0.55;;;28.20;1.00;;;;;;5067199;28;20392;-56
2022/07/04 11:24:58;;;;;;;1.05;0.70;;;28.10;1.00;;;;;;5073301;28;20044;-56
2022/07/04 11:27:24;;;;;;;1.38;0.70;;;28.00;1.00;;;;;;5080007;28;20504;-56
2022/07/04 11:29:54;;;;;;;1.63;0.70;;;28.10;1.00;;;;;;5072598;28;20413;-56
2022/07/04 11:32:30;;;;;;;2.78;0.60;;;28.10;1.00;;;;;;5081245;28;20116;-55
2022/07/04 11:34:56;;;;;;;0.70;0.70;;;28.10;1.00;;;;;;5068561;28;20032;-54
2022/07/04 11:37:22;;;;;;;3.03;0.70;;;28.10;1.00;;;;;;5079176;28;20094;-53
2022/07/04 11:45:02;;;;;;;1.83;0.88;;;27.70;1.00;;;;;;5090500;28;20044;-52
2022/07/04 11:45:45;;;;;;;1.92;0.57;;;27.50;1.00;;;;;;5097547;28;20176;-53
2022/07/04 11:48:23;;;;;;;1.40;0.63;;;27.60;1.00;;;;;;5080023;28;20142;-52
2022/07/04 11:50:49;;;;;;;1.42;0.60;;;27.70;1.00;;;;;;5079098;28;20028;-52
2022/07/04 11:53:16;;;;;;;1.25;0.80;;;27.70;1.00;;;;;;5074444;28;20109;-56
2022/07/04 11:55:52;;;;;;;0.98;0.70;;;27.70;1.00;;;;;;5109072;28;20031;-55
2022/07/04 11:58:17;;;;;;;1.75;0.70;;;27.50;1.00;;;;;;5074485;28;20036;-52
2022/07/04 12:00:43;;;;;;;1.35;0.70;;;27.30;1.00;;;;;;5081303;28;20549;-54
2022/07/04 12:03:09;;;;;;;1.88;0.80;;;27.30;1.00;;;;;;5075228;28;20033;-53
2022/07/04 12:05:36;;;;;;;1.83;1.00;;;27.30;1.00;;;;;;5082110;28;20389;-57
2022/07/04 12:08:04;;;;;;;1.38;0.90;;;27.20;1.00;;;;;;5073517;28;20397;-50
2022/07/04 12:10:30;;;;;;;3.30;0.80;;;27.30;1.00;;;;;;5094452;28;20043;-52
2022/07/04 12:13:15;;;;;;;3.03;1.00;;;27.40;1.00;;;;;;5085534;28;20036;-55
2022/07/04 12:15:46;;;;;;;1.17;0.68;;;27.50;1.40;;;;;;5077746;28;20024;-52
2022/07/04 12:18:21;;;;;;;1.58;0.75;;;27.40;1.20;;;;;;5066520;28;20503;-49
2022/07/04 12:20:49;;;;;;;3.03;0.80;;;27.50;1.00;;;;;;5074124;28;20033;-52
2022/07/04 12:23:15;;;;;;;1.67;0.60;;;27.70;1.00;;;;;;5081117;28;20038;-53
2022/07/04 12:25:43;;;;;;;1.85;0.57;;;27.70;1.00;;;;;;5065368;28;20036;-55
2022/07/04 12:28:11;;;;;;;1.58;0.63;;;27.70;1.00;;;;;;5082039;28;20082;-51
2022/07/04 12:30:56;;;;;;;5.63;0.73;;;27.80;1.00;;;;;;5074073;28;20052;-55
2022/07/04 12:33:26;;;;;;;0.65;0.65;;;27.80;1.00;;;;;;5075025;28;20047;-55
2022/07/04 12:35:56;;;;;;;1.42;0.55;;;27.80;1.00;;;;;;5064989;28;20039;-55
2022/07/04 12:38:44;;;;;;;1.27;0.93;;;27.80;1.00;;;;;;5073117;28;20040;-52
2022/07/04 12:41:12;;;;;;;1.33;0.57;;;27.70;1.00;;;;;;5064293;28;20066;-55
2022/07/04 12:43:41;;;;;;;0.77;0.77;;;27.50;1.00;;;;;;5092885;28;20527;-51
2022/07/04 12:46:14;;;;;;;1.08;0.70;;;27.50;1.00;;;;;;5066857;28;20063;-52
2022/07/04 12:48:41;;;;;;;0.43;0.40;;;27.30;1.00;;;;;;5073834;28;20024;-56
2022/07/04 12:51:18;;;;;;;1.92;0.73;;;27.10;1.00;;;;;;5066956;28;20352;-53
2022/07/04 12:53:45;;;;;;;1.55;0.77;;;27.10;1.00;;;;;;5067795;28;20516;-57
2022/07/04 12:56:36;;;;;;;0.77;0.60;;;27.10;1.00;;;;;;5065680;28;20558;-51
2022/07/04 12:59:07;;;;;;;1.08;0.60;;;26.90;1.00;;;;;;5069717;28;20028;-52
2022/07/04 13:01:34;;;;;;;2.28;0.73;;;26.90;1.90;;;;;;5060385;28;20025;-51
2022/07/04 13:04:00;;;;;;;0.82;0.70;;;26.90;1.80;;;;;;5073341;28;20029;-49
2022/07/04 13:06:26;;;;;;;0.85;0.60;;;26.90;1.90;;;;;;5093476;28;20032;-49
2022/07/04 13:08:56;;;;;;;1.23;1.00;;;27.00;1.50;;;;;;5076052;28;20036;-51
2022/07/04 13:14:05;;;;;;;1.35;0.70;;;27.10;1.10;;;;;;5071298;28;20110;-50
2022/07/04 13:16:31;;;;;;;1.42;0.70;;;27.10;1.00;;;;;;5070407;28;20451;-53
2022/07/04 13:18:57;;;;;;;2.60;0.77;;;27.00;1.00;;;;;;5081399;28;20140;-48